Main page
METAR-TAF:

METAR-TAF

Airports :

Auburn/Lewiston Municipal Airport

Auburn / Lewiston, Maine, United States

latitude: 44-03N, longitude: 070-17W, elevation: 289 ft

Current weather observation

The report was made 45 minutes ago, at 02:56 UTC
Calm wind
Temperature 34°F
Humidity 75%
Pressure 29.93 in. Hg
Visibility: 10 miles
Clear sky

METAR: KLEW 250256Z AUTO 00000KT 10SM CLR 01/M03 A2993 RMK AO2 SLP144 T00061033 50004 FZRANO

Time: 22:41 (03:41 UTC)


TAF: missing

Weather observations and forecasts of more than 4000 airports (METAR and TAF reports).

The available stations are represented by yellow and red dots on the map.

Hover mouse over dot to see the name of the station.

Then click to see weather observations and forecasts.

To change the map : click on the green buttons with a black cross to zoom in, on the green button with a dash to zoom out, or on the green arrows for adjacent maps.


METAR-TAF: